Terminal Aerodrome Forecast
Issued by NWS

Home | Current Version | Previous Version | Text Only | Print | Product List | Glossary On
Versions: 1 2 3 4 5 6 7 8 9 10 11 12 13 14 15 16 17
000
FTUS45 KGJT 281858 AAA
TAFASE
TAF AMD
KASE 281858Z 2819/2918 33009G15KT P6SM VCTS SCT070CB SCT200
      TEMPO 2819/2821 VRB10KT -SHRA SCT045 OVC070
     FM290200 20007KT P6SM SCT070 BKN110
     FM290500 21005KT P6SM SCT250=

USA.gov is the U.S. government's official web portal to all federal, state and local government web resources and services.